Aérodrome :
LOGIN :

S'inscrire | Disclaimer

   EN    FR    IT 

 










Légende :    VFR   VFR Marginal   IFR   IFR Intensif   IFR Très Intensif
Visi : 
Plafond : 
>= 8 km
>= 3000ft
5 à 8 km
1000 à 3000 ft
1500m à 5 km
500 à 1000 ft
800 à 1500m
200 à 500 ft
< 800m
< 200 ft
Symboles :   Orages  Brouillard  Fortes neiges  Fortes précipitations  Vent > 20 kt
SIGMETs :   Divers  Orages  Givrage  Turbulence  Onde Orograph.  Cendres Volcan.






- Altitude de l'aérodrome : 1470 ft
- Code IATA : KLU


LOWK - Klagenfurt

DERNIER METAR :
  • 240520Z AUTO 28003KT 240V310 9999 -RA FEW004 BKN007 03/02 Q1007 TEMPO 4000 RA

METARs EXPIRÉS :
  • 240450Z AUTO 28003KT 250V310 9999 -RA FEW003 BKN006 03/02 Q1007 TEMPO 4000 RA
  • 240420Z AUTO 30002KT 9999 -RA FEW003 BKN006 02/01 Q1007 TEMPO 4000 RA BKN004
  • 240350Z AUTO VRB02KT 9999 -RA FEW004 BKN006 03/01 Q1007 TEMPO 4000 RA BKN004
  • 240320Z AUTO VRB02KT 9999 -RA FEW003 BKN007 02/01 Q1007 TEMPO 4000 RA BKN005
  • 240250Z AUTO VRB02KT 9999 -RA FEW003 BKN007 02/01 Q1007
  • 240220Z AUTO 29004KT 9999 -RA FEW003 BKN005 02/01 Q1007
  • 240150Z AUTO 29003KT 9999 -RA FEW003 BKN006 02/01 Q1007
  • 240120Z AUTO 30003KT 9999 -RA FEW003 BKN004 02/01 Q1008
  • 240050Z AUTO 29003KT 9999 -RADZ FEW003 BKN005 02/01 Q1008

TAF TAF LOWK
Valide du 24 à 06h jusqu'au 25 à 06h UTC


240515Z 2406/2506 VRB03KT 9999 BKN040 TX07/2415Z TN02/2504Z
TEMPO 2406/2412 -RA BKN008
PROB30
TEMPO 2406/2408 3000 RASN BKN004
TEMPO 2417/2506 -SHRA BKN012



MET'MAP, la Météo Aéronautique d'un coup d'oeil ! - Copyright ORBIFLY Décembre 2007 - Disclaimer

ORBIFLY MET'MAP TEAM :

Programmation & Développement : Alexandra Zaïnal
Sur une idée originale de : Baudouin d'Aumeries
Soutien technique & logistique : Manuel Goepfert
Assistance : Marc-Olivier Méhu




SOURCES & CREDITS :

   NOAA